sensor_id;sensor_type;location;lat;lon;timestamp;pressure;altitude;pressure_sealevel;temperature;humidity
38225;BME280;24025;48.138;11.428;2023-09-30T00:02:16;96310.84;;;17.69;66.53
38225;BME280;24025;48.138;11.428;2023-09-30T00:04:48;96302.75;;;17.69;66.46
38225;BME280;24025;48.138;11.428;2023-09-30T00:07:20;96305.06;;;17.67;66.52
38225;BME280;24025;48.138;11.428;2023-09-30T00:09:52;96304.28;;;17.67;66.48
38225;BME280;24025;48.138;11.428;2023-09-30T00:12:24;96312.41;;;17.49;67.06
38225;BME280;24025;48.138;11.428;2023-09-30T00:14:55;96322.81;;;17.50;67.32
38225;BME280;24025;48.138;11.428;2023-09-30T00:17:27;96322.47;;;17.16;68.49
38225;BME280;24025;48.138;11.428;2023-09-30T00:19:58;96324.75;;;17.28;68.02
38225;BME280;24025;48.138;11.428;2023-09-30T00:22:30;96328.22;;;17.18;68.73
38225;BME280;24025;48.138;11.428;2023-09-30T00:25:02;96331.28;;;17.31;67.83
38225;BME280;24025;48.138;11.428;2023-09-30T00:27:34;96332.44;;;17.37;68.31
38225;BME280;24025;48.138;11.428;2023-09-30T00:30:06;96337.84;;;17.37;68.24
38225;BME280;24025;48.138;11.428;2023-09-30T00:32:38;96333.59;;;17.40;67.94
38225;BME280;24025;48.138;11.428;2023-09-30T00:35:11;96328.63;;;17.42;67.75
38225;BME280;24025;48.138;11.428;2023-09-30T00:37:43;96334.38;;;17.40;68.33
38225;BME280;24025;48.138;11.428;2023-09-30T00:40:14;96335.53;;;17.39;68.13
38225;BME280;24025;48.138;11.428;2023-09-30T00:42:46;96323.63;;;17.33;68.46
38225;BME280;24025;48.138;11.428;2023-09-30T00:45:18;96324.38;;;17.34;68.43
38225;BME280;24025;48.138;11.428;2023-09-30T00:47:49;96334.78;;;17.28;68.87
38225;BME280;24025;48.138;11.428;2023-09-30T00:50:22;96327.84;;;17.27;68.92
38225;BME280;24025;48.138;11.428;2023-09-30T00:52:54;96317.84;;;17.24;69.02
38225;BME280;24025;48.138;11.428;2023-09-30T00:55:26;96321.31;;;17.24;69.01
38225;BME280;24025;48.138;11.428;2023-09-30T00:57:57;96321.69;;;17.19;69.28
38225;BME280;24025;48.138;11.428;2023-09-30T01:00:30;96324.38;;;17.19;69.62
38225;BME280;24025;48.138;11.428;2023-09-30T01:03:03;96339.78;;;17.15;69.60
38225;BME280;24025;48.138;11.428;2023-09-30T01:05:36;96343.22;;;17.12;69.63
38225;BME280;24025;48.138;11.428;2023-09-30T01:08:07;96339.75;;;17.05;70.18
38225;BME280;24025;48.138;11.428;2023-09-30T01:10:40;96342.47;;;17.08;69.88
38225;BME280;24025;48.138;11.428;2023-09-30T01:13:11;96341.31;;;17.13;70.11
38225;BME280;24025;48.138;11.428;2023-09-30T01:15:43;96339.38;;;17.13;70.09
38225;BME280;24025;48.138;11.428;2023-09-30T01:18:14;96329.38;;;17.17;70.20
38225;BME280;24025;48.138;11.428;2023-09-30T01:20:46;96328.63;;;17.17;70.56
38225;BME280;24025;48.138;11.428;2023-09-30T01:23:18;96328.63;;;17.17;70.95
38225;BME280;24025;48.138;11.428;2023-09-30T01:25:50;96325.16;;;17.16;71.20
38225;BME280;24025;48.138;11.428;2023-09-30T01:28:22;96325.53;;;17.11;71.26
38225;BME280;24025;48.138;11.428;2023-09-30T01:30:54;96325.91;;;17.10;71.63
38225;BME280;24025;48.138;11.428;2023-09-30T01:33:26;96329.38;;;17.07;71.90
38225;BME280;24025;48.138;11.428;2023-09-30T01:35:58;96338.63;;;17.06;71.83
38225;BME280;24025;48.138;11.428;2023-09-30T01:38:30;96338.63;;;17.06;71.62
38225;BME280;24025;48.138;11.428;2023-09-30T01:41:02;96338.22;;;17.04;71.78
38225;BME280;24025;48.138;11.428;2023-09-30T01:43:34;96335.16;;;17.02;71.72
38225;BME280;24025;48.138;11.428;2023-09-30T01:46:07;96320.91;;;17.01;71.63
38225;BME280;24025;48.138;11.428;2023-09-30T01:48:38;96327.06;;;16.98;71.44
38225;BME280;24025;48.138;11.428;2023-09-30T01:51:10;96331.28;;;16.95;71.75
38225;BME280;24025;48.138;11.428;2023-09-30T01:53:42;96333.59;;;16.93;71.83
38225;BME280;24025;48.138;11.428;2023-09-30T01:56:14;96335.13;;;16.91;72.19
38225;BME280;24025;48.138;11.428;2023-09-30T01:58:46;96337.81;;;16.94;71.82
38225;BME280;24025;48.138;11.428;2023-09-30T02:01:17;96338.59;;;16.91;72.12
38225;BME280;24025;48.138;11.428;2023-09-30T02:03:49;96340.91;;;16.86;72.45
38225;BME280;24025;48.138;11.428;2023-09-30T02:06:21;96328.56;;;16.85;72.81
38225;BME280;24025;48.138;11.428;2023-09-30T02:08:53;96332.44;;;16.84;72.81
38225;BME280;24025;48.138;11.428;2023-09-30T02:11:24;96337.81;;;16.84;72.71
38225;BME280;24025;48.138;11.428;2023-09-30T02:13:56;96341.28;;;16.84;72.50
38225;BME280;24025;48.138;11.428;2023-09-30T02:16:28;96336.69;;;16.88;72.43
38225;BME280;24025;48.138;11.428;2023-09-30T02:19:00;96330.91;;;16.90;72.31
38225;BME280;24025;48.138;11.428;2023-09-30T02:21:31;96336.28;;;16.90;72.47
38225;BME280;24025;48.138;11.428;2023-09-30T02:24:03;96335.53;;;16.93;72.13
38225;BME280;24025;48.138;11.428;2023-09-30T02:26:38;96334.75;;;16.92;72.35
38225;BME280;24025;48.138;11.428;2023-09-30T02:29:10;96333.59;;;16.93;72.04
38225;BME280;24025;48.138;11.428;2023-09-30T02:31:42;96337.44;;;16.96;72.27
38225;BME280;24025;48.138;11.428;2023-09-30T02:34:14;96336.31;;;16.97;72.12
38225;BME280;24025;48.138;11.428;2023-09-30T02:36:46;96326.25;;;16.87;72.60
38225;BME280;24025;48.138;11.428;2023-09-30T02:39:17;96337.81;;;16.94;72.47
38225;BME280;24025;48.138;11.428;2023-09-30T02:41:49;96342.47;;;16.97;71.93
38225;BME280;24025;48.138;11.428;2023-09-30T02:44:21;96337.06;;;16.90;72.20
38225;BME280;24025;48.138;11.428;2023-09-30T02:46:53;96339.38;;;16.92;72.55
38225;BME280;24025;48.138;11.428;2023-09-30T02:49:25;96337.84;;;16.98;72.56
38225;BME280;24025;48.138;11.428;2023-09-30T02:51:57;96333.59;;;17.01;72.18
38225;BME280;24025;48.138;11.428;2023-09-30T02:54:30;96337.03;;;16.73;73.34
38225;BME280;24025;48.138;11.428;2023-09-30T02:57:02;96335.50;;;16.86;72.60
38225;BME280;24025;48.138;11.428;2023-09-30T02:59:35;96333.59;;;16.79;73.13
38225;BME280;24025;48.138;11.428;2023-09-30T03:02:07;96334.75;;;16.82;73.12
38225;BME280;24025;48.138;11.428;2023-09-30T03:04:39;96334.00;;;16.88;72.24
38225;BME280;24025;48.138;11.428;2023-09-30T03:07:11;96331.28;;;16.88;72.57
38225;BME280;24025;48.138;11.428;2023-09-30T03:09:43;96330.13;;;16.93;72.03
38225;BME280;24025;48.138;11.428;2023-09-30T03:12:15;96327.78;;;16.77;72.98
38225;BME280;24025;48.138;11.428;2023-09-30T03:14:46;96326.66;;;16.85;72.42
38225;BME280;24025;48.138;11.428;2023-09-30T03:17:18;96337.03;;;16.76;73.18
38225;BME280;24025;48.138;11.428;2023-09-30T03:19:50;96334.34;;;16.73;73.42
38225;BME280;24025;48.138;11.428;2023-09-30T03:22:22;96336.25;;;16.76;73.21
38225;BME280;24025;48.138;11.428;2023-09-30T03:24:57;96344.72;;;16.78;72.74
38225;BME280;24025;48.138;11.428;2023-09-30T03:27:28;96353.56;;;16.78;73.13
38225;BME280;24025;48.138;11.428;2023-09-30T03:30:03;96342.81;;;16.78;73.09
38225;BME280;24025;48.138;11.428;2023-09-30T03:32:37;96346.28;;;16.82;72.71
38225;BME280;24025;48.138;11.428;2023-09-30T03:35:11;96346.28;;;16.82;72.91
38225;BME280;24025;48.138;11.428;2023-09-30T03:37:47;96346.28;;;16.86;72.47
38225;BME280;24025;48.138;11.428;2023-09-30T03:40:19;96348.91;;;16.68;73.53
38225;BME280;24025;48.138;11.428;2023-09-30T03:42:51;96341.66;;;16.72;73.14
38225;BME280;24025;48.138;11.428;2023-09-30T03:45:23;96343.56;;;16.72;73.41
38225;BME280;24025;48.138;11.428;2023-09-30T03:47:55;96348.97;;;16.79;73.03
38225;BME280;24025;48.138;11.428;2023-09-30T03:50:27;96354.75;;;16.81;73.08
38225;BME280;24025;48.138;11.428;2023-09-30T03:53:05;96341.28;;;16.84;72.88
38225;BME280;24025;48.138;11.428;2023-09-30T03:55:38;96345.53;;;16.89;72.56
38225;BME280;24025;48.138;11.428;2023-09-30T03:58:10;96350.53;;;16.80;72.95
38225;BME280;24025;48.138;11.428;2023-09-30T04:00:41;96352.03;;;16.74;73.17
38225;BME280;24025;48.138;11.428;2023-09-30T04:03:13;96339.69;;;16.69;73.67
38225;BME280;24025;48.138;11.428;2023-09-30T04:05:45;96329.72;;;16.73;73.29
38225;BME280;24025;48.138;11.428;2023-09-30T04:08:17;96335.09;;;16.77;73.17
38225;BME280;24025;48.138;11.428;2023-09-30T04:10:48;96332.03;;;16.82;72.91
38225;BME280;24025;48.138;11.428;2023-09-30T04:13:20;96335.88;;;16.84;72.91
38225;BME280;24025;48.138;11.428;2023-09-30T04:15:52;96341.28;;;16.84;73.00
38225;BME280;24025;48.138;11.428;2023-09-30T04:18:24;96333.56;;;16.76;73.00
38225;BME280;24025;48.138;11.428;2023-09-30T04:20:57;96335.44;;;16.64;73.53
38225;BME280;24025;48.138;11.428;2023-09-30T04:23:29;96328.91;;;16.65;73.25
38225;BME280;24025;48.138;11.428;2023-09-30T04:26:02;96341.59;;;16.65;73.42
38225;BME280;24025;48.138;11.428;2023-09-30T04:28:34;96353.91;;;16.66;73.68
38225;BME280;24025;48.138;11.428;2023-09-30T04:31:06;96347.38;;;16.63;73.84
38225;BME280;24025;48.138;11.428;2023-09-30T04:33:39;96355.03;;;16.58;73.92
38225;BME280;24025;48.138;11.428;2023-09-30T04:36:11;96350.03;;;16.56;74.20
38225;BME280;24025;48.138;11.428;2023-09-30T04:38:43;96353.09;;;16.48;74.40
38225;BME280;24025;48.138;11.428;2023-09-30T04:41:15;96358.47;;;16.48;74.44
38225;BME280;24025;48.138;11.428;2023-09-30T04:43:47;96354.59;;;16.34;74.90
38225;BME280;24025;48.138;11.428;2023-09-30T04:46:19;96359.44;;;16.07;76.44
38225;BME280;24025;48.138;11.428;2023-09-30T04:48:54;96352.94;;;16.15;75.80
38225;BME280;24025;48.138;11.428;2023-09-30T04:51:26;96363.38;;;16.21;75.75
38225;BME280;24025;48.138;11.428;2023-09-30T04:53:57;96354.16;;;16.25;75.45
38225;BME280;24025;48.138;11.428;2023-09-30T04:56:30;96353.78;;;16.27;75.25
38225;BME280;24025;48.138;11.428;2023-09-30T04:59:02;96355.72;;;16.26;75.21
38225;BME280;24025;48.138;11.428;2023-09-30T05:01:35;96360.69;;;16.24;75.59
38225;BME280;24025;48.138;11.428;2023-09-30T05:04:07;96365.28;;;16.24;75.51
38225;BME280;24025;48.138;11.428;2023-09-30T05:06:39;96373.75;;;16.22;75.61
38225;BME280;24025;48.138;11.428;2023-09-30T05:09:10;96378.75;;;16.24;75.68
38225;BME280;24025;48.138;11.428;2023-09-30T05:11:43;96384.56;;;16.29;75.56
38225;BME280;24025;48.138;11.428;2023-09-30T05:14:15;96384.94;;;16.31;75.45
38225;BME280;24025;48.138;11.428;2023-09-30T05:16:48;96388.06;;;16.37;75.43
38225;BME280;24025;48.138;11.428;2023-09-30T05:19:19;96390.75;;;16.40;75.66
38225;BME280;24025;48.138;11.428;2023-09-30T05:21:52;96378.44;;;16.43;75.60
38225;BME280;24025;48.138;11.428;2023-09-30T05:24:23;96379.59;;;16.42;75.75
38225;BME280;24025;48.138;11.428;2023-09-30T05:26:55;96378.06;;;16.41;75.46
38225;BME280;24025;48.138;11.428;2023-09-30T05:29:28;96371.53;;;16.42;74.86
38225;BME280;24025;48.138;11.428;2023-09-30T05:31:59;96371.50;;;16.38;75.03
38225;BME280;24025;48.138;11.428;2023-09-30T05:34:31;96379.97;;;16.37;75.19
38225;BME280;24025;48.138;11.428;2023-09-30T05:37:04;96384.59;;;16.36;75.40
38225;BME280;24025;48.138;11.428;2023-09-30T05:39:36;96401.91;;;16.35;75.09
38225;BME280;24025;48.138;11.428;2023-09-30T05:42:09;96411.47;;;16.33;75.54
38225;BME280;24025;48.138;11.428;2023-09-30T05:44:41;96417.25;;;16.31;75.18
38225;BME280;24025;48.138;11.428;2023-09-30T05:47:14;96421.03;;;16.23;75.70
38225;BME280;24025;48.138;11.428;2023-09-30T05:49:46;96426.03;;;16.18;76.11
38225;BME280;24025;48.138;11.428;2023-09-30T05:52:18;96429.13;;;16.23;76.04
38225;BME280;24025;48.138;11.428;2023-09-30T05:54:50;96425.69;;;16.26;75.55
38225;BME280;24025;48.138;11.428;2023-09-30T05:57:22;96420.53;;;16.00;77.27
38225;BME280;24025;48.138;11.428;2023-09-30T05:59:54;96416.41;;;16.20;76.05
38225;BME280;24025;48.138;11.428;2023-09-30T06:02:26;96420.88;;;15.91;77.62
38225;BME280;24025;48.138;11.428;2023-09-30T06:04:57;96408.69;;;16.15;76.71
38225;BME280;24025;48.138;11.428;2023-09-30T06:07:29;96407.91;;;16.11;76.75
38225;BME280;24025;48.138;11.428;2023-09-30T06:10:01;96415.03;;;15.82;77.51
38225;BME280;24025;48.138;11.428;2023-09-30T06:12:34;96433.44;;;15.76;78.03
38225;BME280;24025;48.138;11.428;2023-09-30T06:15:06;96440.66;;;15.69;78.47
38225;BME280;24025;48.138;11.428;2023-09-30T06:17:38;96440.69;;;15.72;78.44
38225;BME280;24025;48.138;11.428;2023-09-30T06:20:10;96443.25;;;15.58;79.05
38225;BME280;24025;48.138;11.428;2023-09-30T06:22:48;96440.34;;;15.74;78.20
38225;BME280;24025;48.138;11.428;2023-09-30T06:25:25;96432.16;;;15.63;78.22
38225;BME280;24025;48.138;11.428;2023-09-30T06:27:57;96435.28;;;15.65;78.02
38225;BME280;24025;48.138;11.428;2023-09-30T06:30:29;96439.84;;;15.61;78.16
38225;BME280;24025;48.138;11.428;2023-09-30T06:33:05;96454.13;;;15.72;77.91
38225;BME280;24025;48.138;11.428;2023-09-30T06:35:37;96455.66;;;15.66;78.39
38225;BME280;24025;48.138;11.428;2023-09-30T06:38:11;96461.34;;;15.61;78.61
38225;BME280;24025;48.138;11.428;2023-09-30T06:40:43;96453.69;;;15.63;78.83
38225;BME280;24025;48.138;11.428;2023-09-30T06:43:15;96456.94;;;15.83;78.11
38225;BME280;24025;48.138;11.428;2023-09-30T06:45:47;96444.00;;;16.03;77.06
38225;BME280;24025;48.138;11.428;2023-09-30T06:48:18;96441.69;;;16.05;76.92
38225;BME280;24025;48.138;11.428;2023-09-30T06:50:50;96448.66;;;16.09;76.92
38225;BME280;24025;48.138;11.428;2023-09-30T06:53:24;96461.78;;;16.18;76.58
38225;BME280;24025;48.138;11.428;2023-09-30T06:55:55;96469.09;;;16.21;76.27
38225;BME280;24025;48.138;11.428;2023-09-30T06:58:27;96473.25;;;16.08;76.34
38225;BME280;24025;48.138;11.428;2023-09-30T07:00:58;96474.31;;;15.96;77.14
38225;BME280;24025;48.138;11.428;2023-09-30T07:03:30;96468.97;;;16.03;77.08
38225;BME280;24025;48.138;11.428;2023-09-30T07:06:04;96470.91;;;16.03;76.57
38225;BME280;24025;48.138;11.428;2023-09-30T07:08:36;96481.97;;;15.91;77.08
38225;BME280;24025;48.138;11.428;2023-09-30T07:11:08;96470.44;;;15.94;76.88
38225;BME280;24025;48.138;11.428;2023-09-30T07:13:41;96466.75;;;16.12;76.25
38225;BME280;24025;48.138;11.428;2023-09-30T07:16:12;96477.72;;;15.90;77.03
38225;BME280;24025;48.138;11.428;2023-09-30T07:18:44;96486.34;;;16.09;76.87
38225;BME280;24025;48.138;11.428;2023-09-30T07:21:16;96475.69;;;16.27;75.64
38225;BME280;24025;48.138;11.428;2023-09-30T07:23:47;96484.47;;;16.17;75.79
38225;BME280;24025;48.138;11.428;2023-09-30T07:26:24;96497.88;;;16.10;76.37
38225;BME280;24025;48.138;11.428;2023-09-30T07:28:55;96496.34;;;16.12;76.94
38225;BME280;24025;48.138;11.428;2023-09-30T07:31:28;96502.56;;;16.24;75.96
38225;BME280;24025;48.138;11.428;2023-09-30T07:34:00;96498.91;;;15.98;76.59
38225;BME280;24025;48.138;11.428;2023-09-30T07:36:32;96490.44;;;15.96;76.70
38225;BME280;24025;48.138;11.428;2023-09-30T07:39:04;96496.66;;;16.00;76.26
38225;BME280;24025;48.138;11.428;2023-09-30T07:41:36;96499.16;;;16.34;75.20
38225;BME280;24025;48.138;11.428;2023-09-30T07:44:08;96507.94;;;16.24;75.48
38225;BME280;24025;48.138;11.428;2023-09-30T07:46:40;96514.69;;;16.55;74.25
38225;BME280;24025;48.138;11.428;2023-09-30T07:49:12;96514.69;;;16.55;73.93
38225;BME280;24025;48.138;11.428;2023-09-30T07:51:44;96516.22;;;16.56;73.07
38225;BME280;24025;48.138;11.428;2023-09-30T07:54:17;96519.84;;;16.85;72.57
38225;BME280;24025;48.138;11.428;2023-09-30T07:57:01;96518.78;;;17.04;72.21
38225;BME280;24025;48.138;11.428;2023-09-30T07:59:33;96525.97;;;16.78;72.35
38225;BME280;24025;48.138;11.428;2023-09-30T08:02:05;96530.84;;;16.55;73.69
38225;BME280;24025;48.138;11.428;2023-09-30T08:04:38;96526.78;;;16.79;72.62
38225;BME280;24025;48.138;11.428;2023-09-30T08:07:09;96517.50;;;16.76;72.92
38225;BME280;24025;48.138;11.428;2023-09-30T08:09:41;96518.56;;;16.61;73.55
38225;BME280;24025;48.138;11.428;2023-09-30T08:12:13;96514.88;;;16.90;72.30
38225;BME280;24025;48.138;11.428;2023-09-30T08:14:44;96515.63;;;16.80;72.50
38225;BME280;24025;48.138;11.428;2023-09-30T08:17:16;96508.66;;;16.72;72.79
38225;BME280;24025;48.138;11.428;2023-09-30T08:19:49;96500.44;;;16.58;73.34
38225;BME280;24025;48.138;11.428;2023-09-30T08:22:20;96493.22;;;16.69;72.69
38225;BME280;24025;48.138;11.428;2023-09-30T08:24:56;96499.03;;;16.71;72.42
38225;BME280;24025;48.138;11.428;2023-09-30T08:27:28;96511.81;;;16.88;71.76
38225;BME280;24025;48.138;11.428;2023-09-30T08:30:00;96515.22;;;16.82;72.30
38225;BME280;24025;48.138;11.428;2023-09-30T08:32:36;96530.59;;;16.78;71.92
38225;BME280;24025;48.138;11.428;2023-09-30T08:35:08;96543.03;;;17.04;70.99
38225;BME280;24025;48.138;11.428;2023-09-30T08:37:41;96533.34;;;16.88;71.04
38225;BME280;24025;48.138;11.428;2023-09-30T08:40:12;96540.63;;;16.81;71.31
38225;BME280;24025;48.138;11.428;2023-09-30T08:42:44;96550.31;;;16.92;71.27
38225;BME280;24025;48.138;11.428;2023-09-30T08:45:16;96543.09;;;17.21;70.68
38225;BME280;24025;48.138;11.428;2023-09-30T08:47:49;96533.03;;;17.04;69.85
38225;BME280;24025;48.138;11.428;2023-09-30T08:50:22;96535.38;;;17.09;70.33
38225;BME280;24025;48.138;11.428;2023-09-30T08:52:53;96530.31;;;16.97;70.46
38225;BME280;24025;48.138;11.428;2023-09-30T08:55:26;96524.16;;;16.96;69.75
38225;BME280;24025;48.138;11.428;2023-09-30T08:57:58;96519.22;;;17.16;69.59
38225;BME280;24025;48.138;11.428;2023-09-30T09:00:32;96521.97;;;17.48;68.89
38225;BME280;24025;48.138;11.428;2023-09-30T09:03:07;96524.19;;;17.07;68.79
38225;BME280;24025;48.138;11.428;2023-09-30T09:05:38;96522.31;;;17.22;69.22
38225;BME280;24025;48.138;11.428;2023-09-30T09:08:10;96533.84;;;17.22;69.36
38225;BME280;24025;48.138;11.428;2023-09-30T09:10:57;96535.84;;;17.36;67.67
38225;BME280;24025;48.138;11.428;2023-09-30T09:13:45;96544.75;;;17.54;67.90
38225;BME280;24025;48.138;11.428;2023-09-30T09:16:17;96537.13;;;17.89;66.97
38225;BME280;24025;48.138;11.428;2023-09-30T09:18:52;96534.44;;;17.96;66.64
38225;BME280;24025;48.138;11.428;2023-09-30T09:21:24;96530.94;;;17.77;64.91
38225;BME280;24025;48.138;11.428;2023-09-30T09:23:58;96532.88;;;17.88;65.77
38225;BME280;24025;48.138;11.428;2023-09-30T09:26:31;96554.47;;;17.88;65.63
38225;BME280;24025;48.138;11.428;2023-09-30T09:29:07;96552.50;;;17.74;65.72
38225;BME280;24025;48.138;11.428;2023-09-30T09:31:39;96542.88;;;18.01;65.30
38225;BME280;24025;48.138;11.428;2023-09-30T09:34:14;96540.59;;;18.14;63.90
38225;BME280;24025;48.138;11.428;2023-09-30T09:36:46;96534.03;;;18.33;64.29
38225;BME280;24025;48.138;11.428;2023-09-30T09:39:29;96530.56;;;18.11;64.53
38225;BME280;24025;48.138;11.428;2023-09-30T09:42:02;96516.69;;;17.98;64.65
38225;BME280;24025;48.138;11.428;2023-09-30T09:44:36;96499.66;;;18.48;63.60
38225;BME280;24025;48.138;11.428;2023-09-30T09:47:08;96479.91;;;18.79;62.64
38225;BME280;24025;48.138;11.428;2023-09-30T09:49:40;96466.25;;;19.11;61.46
38225;BME280;24025;48.138;11.428;2023-09-30T09:52:13;96476.53;;;19.34;60.82
38225;BME280;24025;48.138;11.428;2023-09-30T09:54:48;96474.50;;;19.52;59.87
38225;BME280;24025;48.138;11.428;2023-09-30T09:57:22;96483.03;;;19.47;59.47
38225;BME280;24025;48.138;11.428;2023-09-30T09:59:56;96495.88;;;19.33;58.64
38225;BME280;24025;48.138;11.428;2023-09-30T10:02:32;96501.94;;;18.74;59.99
38225;BME280;24025;48.138;11.428;2023-09-30T10:05:04;96506.50;;;18.95;59.58
38225;BME280;24025;48.138;11.428;2023-09-30T10:07:40;96492.53;;;19.07;59.93
38225;BME280;24025;48.138;11.428;2023-09-30T10:10:14;96503.81;;;18.81;60.34
38225;BME280;24025;48.138;11.428;2023-09-30T10:12:47;96503.88;;;18.70;60.77
38225;BME280;24025;48.138;11.428;2023-09-30T10:18:02;96495.34;;;18.79;59.29
38225;BME280;24025;48.138;11.428;2023-09-30T10:20:46;96496.19;;;18.51;59.46
38225;BME280;24025;48.138;11.428;2023-09-30T10:28:46;96485.66;;;18.92;59.33
38225;BME280;24025;48.138;11.428;2023-09-30T10:31:21;96485.56;;;19.06;58.95
38225;BME280;24025;48.138;11.428;2023-09-30T10:36:35;96477.19;;;19.60;55.59
38225;BME280;24025;48.138;11.428;2023-09-30T10:39:13;96475.22;;;19.64;54.59
38225;BME280;24025;48.138;11.428;2023-09-30T10:46:59;96475.06;;;19.85;54.71
38225;BME280;24025;48.138;11.428;2023-09-30T10:49:32;96484.16;;;19.57;55.02
38225;BME280;24025;48.138;11.428;2023-09-30T10:52:03;96488.66;;;19.12;56.14
38225;BME280;24025;48.138;11.428;2023-09-30T10:54:35;96501.06;;;19.02;56.16
38225;BME280;24025;48.138;11.428;2023-09-30T10:57:10;96499.22;;;18.63;58.06
38225;BME280;24025;48.138;11.428;2023-09-30T10:59:41;96497.72;;;18.52;59.43
38225;BME280;24025;48.138;11.428;2023-09-30T11:02:19;96479.81;;;19.04;59.05
38225;BME280;24025;48.138;11.428;2023-09-30T11:04:52;96473.97;;;19.79;56.15
38225;BME280;24025;48.138;11.428;2023-09-30T11:07:25;96462.66;;;20.29;55.34
38225;BME280;24025;48.138;11.428;2023-09-30T11:10:01;96469.13;;;20.42;54.09
38225;BME280;24025;48.138;11.428;2023-09-30T11:12:33;96459.81;;;20.81;50.68
38225;BME280;24025;48.138;11.428;2023-09-30T11:15:05;96461.75;;;21.11;50.43
38225;BME280;24025;48.138;11.428;2023-09-30T11:17:38;96470.44;;;20.99;51.57
38225;BME280;24025;48.138;11.428;2023-09-30T11:20:10;96469.50;;;21.12;50.79
38225;BME280;24025;48.138;11.428;2023-09-30T11:22:42;96458.63;;;20.82;52.10
38225;BME280;24025;48.138;11.428;2023-09-30T11:25:19;96466.28;;;20.90;51.75
38225;BME280;24025;48.138;11.428;2023-09-30T11:27:51;96465.72;;;20.72;51.32
38225;BME280;24025;48.138;11.428;2023-09-30T11:30:22;96468.47;;;21.33;50.98
38225;BME280;24025;48.138;11.428;2023-09-30T11:33:00;96469.28;;;21.57;51.15
38225;BME280;24025;48.138;11.428;2023-09-30T11:35:32;96475.88;;;21.83;47.59
38225;BME280;24025;48.138;11.428;2023-09-30T11:38:03;96475.34;;;21.92;48.71
38225;BME280;24025;48.138;11.428;2023-09-30T11:40:35;96481.47;;;21.15;48.42
38225;BME280;24025;48.138;11.428;2023-09-30T11:43:07;96489.84;;;20.93;49.84
38225;BME280;24025;48.138;11.428;2023-09-30T11:45:39;96480.94;;;20.21;50.46
38225;BME280;24025;48.138;11.428;2023-09-30T11:48:20;96476.44;;;20.07;49.56
38225;BME280;24025;48.138;11.428;2023-09-30T11:50:52;96471.09;;;20.38;48.91
38225;BME280;24025;48.138;11.428;2023-09-30T11:53:24;96465.56;;;20.52;48.96
38225;BME280;24025;48.138;11.428;2023-09-30T11:55:57;96456.72;;;20.07;47.94
38225;BME280;24025;48.138;11.428;2023-09-30T11:58:30;96442.34;;;20.85;47.46
38225;BME280;24025;48.138;11.428;2023-09-30T12:01:03;96437.81;;;21.60;46.00
38225;BME280;24025;48.138;11.428;2023-09-30T12:03:38;96437.72;;;20.82;46.70
38225;BME280;24025;48.138;11.428;2023-09-30T12:06:12;96427.38;;;21.04;47.21
38225;BME280;24025;48.138;11.428;2023-09-30T12:08:45;96415.72;;;21.85;46.12
38225;BME280;24025;48.138;11.428;2023-09-30T12:11:17;96410.09;;;21.95;45.30
38225;BME280;24025;48.138;11.428;2023-09-30T12:13:49;96415.53;;;22.39;42.79
38225;BME280;24025;48.138;11.428;2023-09-30T12:16:21;96415.66;;;22.12;44.41
38225;BME280;24025;48.138;11.428;2023-09-30T12:18:54;96409.38;;;22.34;44.37
38225;BME280;24025;48.138;11.428;2023-09-30T12:21:26;96420.34;;;22.51;43.48
38225;BME280;24025;48.138;11.428;2023-09-30T12:23:58;96421.66;;;22.23;44.01
38225;BME280;24025;48.138;11.428;2023-09-30T12:26:30;96415.97;;;22.37;44.00
38225;BME280;24025;48.138;11.428;2023-09-30T12:29:02;96417.13;;;21.93;43.61
38225;BME280;24025;48.138;11.428;2023-09-30T12:31:34;96418.25;;;22.19;44.44
38225;BME280;24025;48.138;11.428;2023-09-30T12:34:23;96421.47;;;22.73;44.96
38225;BME280;24025;48.138;11.428;2023-09-30T12:36:57;96411.44;;;23.42;44.27
38225;BME280;24025;48.138;11.428;2023-09-30T12:39:29;96409.59;;;22.83;42.68
38225;BME280;24025;48.138;11.428;2023-09-30T12:42:05;96410.69;;;23.74;42.78
38225;BME280;24025;48.138;11.428;2023-09-30T12:44:40;96405.91;;;23.95;40.11
38225;BME280;24025;48.138;11.428;2023-09-30T12:47:12;96404.75;;;23.63;41.33
38225;BME280;24025;48.138;11.428;2023-09-30T12:49:44;96411.13;;;22.25;42.68
38225;BME280;24025;48.138;11.428;2023-09-30T12:52:15;96403.91;;;22.18;43.59
38225;BME280;24025;48.138;11.428;2023-09-30T12:54:47;96406.00;;;22.07;43.35
38225;BME280;24025;48.138;11.428;2023-09-30T12:57:20;96401.22;;;22.34;43.74
38225;BME280;24025;48.138;11.428;2023-09-30T12:59:51;96403.13;;;22.97;43.04
38225;BME280;24025;48.138;11.428;2023-09-30T13:02:24;96407.16;;;23.58;39.97
38225;BME280;24025;48.138;11.428;2023-09-30T13:04:57;96407.75;;;23.16;40.96
38225;BME280;24025;48.138;11.428;2023-09-30T13:07:29;96422.22;;;22.34;42.50
38225;BME280;24025;48.138;11.428;2023-09-30T13:10:00;96421.59;;;22.03;43.03
38225;BME280;24025;48.138;11.428;2023-09-30T13:12:32;96423.78;;;21.11;45.05
38225;BME280;24025;48.138;11.428;2023-09-30T13:15:07;96428.59;;;21.00;45.53
38225;BME280;24025;48.138;11.428;2023-09-30T13:17:40;96425.66;;;20.87;46.34
38225;BME280;24025;48.138;11.428;2023-09-30T13:20:12;96415.53;;;20.60;46.78
38225;BME280;24025;48.138;11.428;2023-09-30T13:22:43;96417.25;;;20.06;47.77
38225;BME280;24025;48.138;11.428;2023-09-30T13:25:15;96399.44;;;20.08;47.76
38225;BME280;24025;48.138;11.428;2023-09-30T13:27:47;96385.81;;;20.53;47.54
38225;BME280;24025;48.138;11.428;2023-09-30T13:30:18;96390.66;;;20.65;47.70
38225;BME280;24025;48.138;11.428;2023-09-30T13:32:50;96389.75;;;21.06;46.82
38225;BME280;24025;48.138;11.428;2023-09-30T13:35:22;96395.47;;;21.66;45.98